sensor_id;sensor_type;location;lat;lon;timestamp;P1;durP1;ratioP1;P2;durP2;ratioP2
49962;SDS011;36180;57.678;11.910;2023-03-14T00:02:30;56.13;;;6.10;;
49962;SDS011;36180;57.678;11.910;2023-03-14T00:04:59;42.65;;;5.53;;
49962;SDS011;36180;57.678;11.910;2023-03-14T00:07:27;40.05;;;5.28;;
49962;SDS011;36180;57.678;11.910;2023-03-14T00:09:59;35.15;;;5.75;;
49962;SDS011;36180;57.678;11.910;2023-03-14T00:12:26;43.35;;;5.97;;
49962;SDS011;36180;57.678;11.910;2023-03-14T00:14:53;34.50;;;4.93;;
49962;SDS011;36180;57.678;11.910;2023-03-14T00:17:23;39.70;;;5.13;;
49962;SDS011;36180;57.678;11.910;2023-03-14T00:19:50;37.45;;;5.53;;
49962;SDS011;36180;57.678;11.910;2023-03-14T00:22:20;46.70;;;4.60;;
49962;SDS011;36180;57.678;11.910;2023-03-14T00:24:47;45.00;;;5.47;;
49962;SDS011;36180;57.678;11.910;2023-03-14T00:27:14;48.35;;;5.18;;
49962;SDS011;36180;57.678;11.910;2023-03-14T00:29:42;46.17;;;6.78;;
49962;SDS011;36180;57.678;11.910;2023-03-14T00:32:10;54.65;;;6.88;;
49962;SDS011;36180;57.678;11.910;2023-03-14T00:34:39;45.65;;;5.32;;
49962;SDS011;36180;57.678;11.910;2023-03-14T00:37:06;41.25;;;5.53;;
49962;SDS011;36180;57.678;11.910;2023-03-14T00:39:34;35.33;;;5.45;;
49962;SDS011;36180;57.678;11.910;2023-03-14T00:42:01;48.58;;;6.25;;
49962;SDS011;36180;57.678;11.910;2023-03-14T00:44:28;38.15;;;5.68;;
49962;SDS011;36180;57.678;11.910;2023-03-14T00:46:56;26.65;;;4.00;;
49962;SDS011;36180;57.678;11.910;2023-03-14T00:49:24;26.73;;;4.10;;
49962;SDS011;36180;57.678;11.910;2023-03-14T00:51:51;27.35;;;3.95;;
49962;SDS011;36180;57.678;11.910;2023-03-14T00:54:18;27.90;;;3.92;;
49962;SDS011;36180;57.678;11.910;2023-03-14T00:56:47;35.72;;;4.03;;
49962;SDS011;36180;57.678;11.910;2023-03-14T00:59:15;27.60;;;3.88;;
49962;SDS011;36180;57.678;11.910;2023-03-14T01:01:42;28.77;;;3.63;;
49962;SDS011;36180;57.678;11.910;2023-03-14T01:04:09;29.48;;;3.88;;
49962;SDS011;36180;57.678;11.910;2023-03-14T01:06:36;24.75;;;3.63;;
49962;SDS011;36180;57.678;11.910;2023-03-14T01:09:04;27.20;;;3.65;;
49962;SDS011;36180;57.678;11.910;2023-03-14T01:11:31;25.77;;;3.85;;
49962;SDS011;36180;57.678;11.910;2023-03-14T01:14:01;23.23;;;3.83;;
49962;SDS011;36180;57.678;11.910;2023-03-14T01:16:30;29.88;;;3.60;;
49962;SDS011;36180;57.678;11.910;2023-03-14T01:18:59;30.45;;;3.47;;
49962;SDS011;36180;57.678;11.910;2023-03-14T01:21:27;25.60;;;3.50;;
49962;SDS011;36180;57.678;11.910;2023-03-14T01:23:56;31.05;;;4.10;;
49962;SDS011;36180;57.678;11.910;2023-03-14T01:26:25;27.27;;;3.10;;
49962;SDS011;36180;57.678;11.910;2023-03-14T01:28:53;22.80;;;2.75;;
49962;SDS011;36180;57.678;11.910;2023-03-14T01:31:23;30.10;;;3.83;;
49962;SDS011;36180;57.678;11.910;2023-03-14T01:33:50;21.13;;;3.08;;
49962;SDS011;36180;57.678;11.910;2023-03-14T01:36:18;21.00;;;3.45;;
49962;SDS011;36180;57.678;11.910;2023-03-14T01:38:45;27.67;;;3.75;;
49962;SDS011;36180;57.678;11.910;2023-03-14T01:41:15;22.55;;;3.47;;
49962;SDS011;36180;57.678;11.910;2023-03-14T01:43:45;27.15;;;3.65;;
49962;SDS011;36180;57.678;11.910;2023-03-14T01:46:25;24.92;;;3.33;;
49962;SDS011;36180;57.678;11.910;2023-03-14T01:48:59;26.65;;;3.00;;
49962;SDS011;36180;57.678;11.910;2023-03-14T01:51:33;18.23;;;2.70;;
49962;SDS011;36180;57.678;11.910;2023-03-14T01:54:05;29.33;;;3.13;;
49962;SDS011;36180;57.678;11.910;2023-03-14T01:56:35;19.05;;;2.40;;
49962;SDS011;36180;57.678;11.910;2023-03-14T01:59:03;16.63;;;2.75;;
49962;SDS011;36180;57.678;11.910;2023-03-14T02:01:33;23.25;;;2.75;;
49962;SDS011;36180;57.678;11.910;2023-03-14T02:04:02;21.17;;;2.65;;
49962;SDS011;36180;57.678;11.910;2023-03-14T02:06:31;19.08;;;2.63;;
49962;SDS011;36180;57.678;11.910;2023-03-14T02:09:02;21.48;;;3.00;;
49962;SDS011;36180;57.678;11.910;2023-03-14T02:11:32;23.95;;;2.60;;
49962;SDS011;36180;57.678;11.910;2023-03-14T02:14:15;16.88;;;2.75;;
49962;SDS011;36180;57.678;11.910;2023-03-14T02:17:11;29.67;;;3.08;;
49962;SDS011;36180;57.678;11.910;2023-03-14T02:20:07;24.10;;;3.55;;
49962;SDS011;36180;57.678;11.910;2023-03-14T02:22:54;22.88;;;2.80;;
49962;SDS011;36180;57.678;11.910;2023-03-14T02:25:23;25.17;;;3.15;;
49962;SDS011;36180;57.678;11.910;2023-03-14T02:27:56;18.48;;;2.45;;
49962;SDS011;36180;57.678;11.910;2023-03-14T02:30:24;29.67;;;2.90;;
49962;SDS011;36180;57.678;11.910;2023-03-14T02:32:54;26.98;;;2.63;;
49962;SDS011;36180;57.678;11.910;2023-03-14T02:35:27;25.58;;;3.38;;
49962;SDS011;36180;57.678;11.910;2023-03-14T02:37:57;21.10;;;2.63;;
49962;SDS011;36180;57.678;11.910;2023-03-14T02:40:33;18.02;;;2.85;;
49962;SDS011;36180;57.678;11.910;2023-03-14T02:43:01;18.75;;;2.17;;
49962;SDS011;36180;57.678;11.910;2023-03-14T02:45:40;15.60;;;2.13;;
49962;SDS011;36180;57.678;11.910;2023-03-14T02:48:14;22.67;;;2.67;;
49962;SDS011;36180;57.678;11.910;2023-03-14T02:50:43;18.13;;;2.80;;
49962;SDS011;36180;57.678;11.910;2023-03-14T02:53:11;19.38;;;2.60;;
49962;SDS011;36180;57.678;11.910;2023-03-14T02:55:40;17.73;;;2.40;;
49962;SDS011;36180;57.678;11.910;2023-03-14T02:58:12;25.67;;;3.13;;
49962;SDS011;36180;57.678;11.910;2023-03-14T03:00:40;32.15;;;3.45;;
49962;SDS011;36180;57.678;11.910;2023-03-14T03:03:09;20.10;;;2.85;;
49962;SDS011;36180;57.678;11.910;2023-03-14T03:05:37;25.10;;;2.75;;
49962;SDS011;36180;57.678;11.910;2023-03-14T03:08:05;20.98;;;2.45;;
49962;SDS011;36180;57.678;11.910;2023-03-14T03:10:32;18.50;;;2.40;;
49962;SDS011;36180;57.678;11.910;2023-03-14T03:13:00;19.27;;;2.65;;
49962;SDS011;36180;57.678;11.910;2023-03-14T03:15:28;24.15;;;2.60;;
49962;SDS011;36180;57.678;11.910;2023-03-14T03:17:56;23.35;;;2.47;;
49962;SDS011;36180;57.678;11.910;2023-03-14T03:20:23;26.40;;;2.72;;
49962;SDS011;36180;57.678;11.910;2023-03-14T03:22:51;16.90;;;2.10;;
49962;SDS011;36180;57.678;11.910;2023-03-14T03:25:18;23.48;;;2.92;;
49962;SDS011;36180;57.678;11.910;2023-03-14T03:27:45;24.27;;;2.08;;
49962;SDS011;36180;57.678;11.910;2023-03-14T03:30:16;21.73;;;2.30;;
49962;SDS011;36180;57.678;11.910;2023-03-14T03:32:44;20.98;;;2.75;;
49962;SDS011;36180;57.678;11.910;2023-03-14T03:35:11;21.58;;;2.47;;
49962;SDS011;36180;57.678;11.910;2023-03-14T03:37:40;21.88;;;2.80;;
49962;SDS011;36180;57.678;11.910;2023-03-14T03:40:08;18.02;;;2.05;;
49962;SDS011;36180;57.678;11.910;2023-03-14T03:42:36;18.20;;;2.47;;
49962;SDS011;36180;57.678;11.910;2023-03-14T03:45:07;14.63;;;2.10;;
49962;SDS011;36180;57.678;11.910;2023-03-14T03:47:40;23.60;;;2.95;;
49962;SDS011;36180;57.678;11.910;2023-03-14T03:50:10;20.50;;;2.72;;
49962;SDS011;36180;57.678;11.910;2023-03-14T03:52:37;23.00;;;3.25;;
49962;SDS011;36180;57.678;11.910;2023-03-14T03:55:04;14.25;;;1.90;;
49962;SDS011;36180;57.678;11.910;2023-03-14T03:57:32;22.48;;;2.58;;
49962;SDS011;36180;57.678;11.910;2023-03-14T03:59:59;26.98;;;2.47;;
49962;SDS011;36180;57.678;11.910;2023-03-14T04:02:26;21.83;;;2.63;;
49962;SDS011;36180;57.678;11.910;2023-03-14T04:04:54;12.98;;;2.30;;
49962;SDS011;36180;57.678;11.910;2023-03-14T04:07:23;17.08;;;2.22;;
49962;SDS011;36180;57.678;11.910;2023-03-14T04:09:50;22.92;;;2.70;;
49962;SDS011;36180;57.678;11.910;2023-03-14T04:12:24;25.77;;;3.08;;
49962;SDS011;36180;57.678;11.910;2023-03-14T04:15:10;21.85;;;2.88;;
49962;SDS011;36180;57.678;11.910;2023-03-14T04:17:41;27.15;;;2.78;;
49962;SDS011;36180;57.678;11.910;2023-03-14T04:20:09;21.02;;;2.42;;
49962;SDS011;36180;57.678;11.910;2023-03-14T04:22:40;16.10;;;2.38;;
49962;SDS011;36180;57.678;11.910;2023-03-14T04:25:09;23.88;;;2.47;;
49962;SDS011;36180;57.678;11.910;2023-03-14T04:27:41;13.77;;;2.78;;
49962;SDS011;36180;57.678;11.910;2023-03-14T04:30:16;22.40;;;2.90;;
49962;SDS011;36180;57.678;11.910;2023-03-14T04:32:49;20.60;;;2.22;;
49962;SDS011;36180;57.678;11.910;2023-03-14T04:35:18;23.08;;;3.17;;
49962;SDS011;36180;57.678;11.910;2023-03-14T04:37:47;17.15;;;3.08;;
49962;SDS011;36180;57.678;11.910;2023-03-14T04:40:15;19.60;;;2.75;;
49962;SDS011;36180;57.678;11.910;2023-03-14T04:42:42;26.45;;;2.83;;
49962;SDS011;36180;57.678;11.910;2023-03-14T04:45:10;24.30;;;2.65;;
49962;SDS011;36180;57.678;11.910;2023-03-14T04:47:39;23.13;;;2.35;;
49962;SDS011;36180;57.678;11.910;2023-03-14T04:50:10;25.55;;;3.25;;
49962;SDS011;36180;57.678;11.910;2023-03-14T04:52:37;26.63;;;3.28;;
49962;SDS011;36180;57.678;11.910;2023-03-14T04:55:06;28.83;;;2.85;;
49962;SDS011;36180;57.678;11.910;2023-03-14T04:57:34;28.50;;;2.78;;
49962;SDS011;36180;57.678;11.910;2023-03-14T05:00:01;35.47;;;3.72;;
49962;SDS011;36180;57.678;11.910;2023-03-14T05:02:50;21.33;;;2.75;;
49962;SDS011;36180;57.678;11.910;2023-03-14T05:05:28;22.00;;;2.95;;
49962;SDS011;36180;57.678;11.910;2023-03-14T05:08:07;23.13;;;2.35;;
49962;SDS011;36180;57.678;11.910;2023-03-14T05:10:56;27.60;;;3.28;;
49962;SDS011;36180;57.678;11.910;2023-03-14T05:13:35;23.00;;;3.00;;
49962;SDS011;36180;57.678;11.910;2023-03-14T05:16:21;22.35;;;3.03;;
49962;SDS011;36180;57.678;11.910;2023-03-14T05:18:54;28.75;;;3.20;;
49962;SDS011;36180;57.678;11.910;2023-03-14T05:21:30;27.23;;;3.05;;
49962;SDS011;36180;57.678;11.910;2023-03-14T05:24:12;24.77;;;3.75;;
49962;SDS011;36180;57.678;11.910;2023-03-14T05:27:04;37.20;;;4.03;;
49962;SDS011;36180;57.678;11.910;2023-03-14T05:29:39;33.15;;;3.90;;
49962;SDS011;36180;57.678;11.910;2023-03-14T05:32:29;25.77;;;3.80;;
49962;SDS011;36180;57.678;11.910;2023-03-14T05:35:14;33.30;;;4.10;;
49962;SDS011;36180;57.678;11.910;2023-03-14T05:38:00;27.70;;;3.40;;
49962;SDS011;36180;57.678;11.910;2023-03-14T05:40:40;34.25;;;3.83;;
49962;SDS011;36180;57.678;11.910;2023-03-14T05:43:18;32.15;;;3.47;;
49962;SDS011;36180;57.678;11.910;2023-03-14T05:46:08;37.17;;;3.72;;
49962;SDS011;36180;57.678;11.910;2023-03-14T05:48:49;35.25;;;3.97;;
49962;SDS011;36180;57.678;11.910;2023-03-14T05:51:31;27.27;;;3.80;;
49962;SDS011;36180;57.678;11.910;2023-03-14T05:54:11;26.30;;;3.90;;
49962;SDS011;36180;57.678;11.910;2023-03-14T05:57:07;37.75;;;3.97;;
49962;SDS011;36180;57.678;11.910;2023-03-14T05:59:49;32.92;;;4.32;;
49962;SDS011;36180;57.678;11.910;2023-03-14T06:02:37;29.15;;;3.65;;
49962;SDS011;36180;57.678;11.910;2023-03-14T06:05:13;36.42;;;4.15;;
49962;SDS011;36180;57.678;11.910;2023-03-14T06:07:40;36.85;;;4.78;;
49962;SDS011;36180;57.678;11.910;2023-03-14T06:10:07;38.45;;;3.80;;
49962;SDS011;36180;57.678;11.910;2023-03-14T06:12:36;40.58;;;4.80;;
49962;SDS011;36180;57.678;11.910;2023-03-14T06:15:05;29.05;;;4.65;;
49962;SDS011;36180;57.678;11.910;2023-03-14T06:17:33;37.17;;;4.35;;
49962;SDS011;36180;57.678;11.910;2023-03-14T06:20:06;35.72;;;4.50;;
49962;SDS011;36180;57.678;11.910;2023-03-14T06:22:34;26.20;;;4.40;;
49962;SDS011;36180;57.678;11.910;2023-03-14T06:25:01;36.35;;;3.83;;
49962;SDS011;36180;57.678;11.910;2023-03-14T06:27:29;34.10;;;3.47;;
49962;SDS011;36180;57.678;11.910;2023-03-14T06:29:57;36.42;;;3.92;;
49962;SDS011;36180;57.678;11.910;2023-03-14T06:32:26;33.83;;;4.22;;
49962;SDS011;36180;57.678;11.910;2023-03-14T06:34:58;39.08;;;4.53;;
49962;SDS011;36180;57.678;11.910;2023-03-14T06:37:26;43.92;;;4.97;;
49962;SDS011;36180;57.678;11.910;2023-03-14T06:39:54;47.17;;;4.63;;
49962;SDS011;36180;57.678;11.910;2023-03-14T06:42:45;35.30;;;4.53;;
49962;SDS011;36180;57.678;11.910;2023-03-14T06:45:14;42.03;;;5.70;;
49962;SDS011;36180;57.678;11.910;2023-03-14T06:47:43;37.70;;;4.60;;
49962;SDS011;36180;57.678;11.910;2023-03-14T06:50:10;39.53;;;3.53;;
49962;SDS011;36180;57.678;11.910;2023-03-14T06:52:38;36.97;;;3.88;;
49962;SDS011;36180;57.678;11.910;2023-03-14T06:55:07;28.23;;;3.65;;
49962;SDS011;36180;57.678;11.910;2023-03-14T06:57:35;39.40;;;4.40;;
49962;SDS011;36180;57.678;11.910;2023-03-14T07:00:03;25.95;;;4.25;;
49962;SDS011;36180;57.678;11.910;2023-03-14T07:02:32;37.05;;;4.10;;
49962;SDS011;36180;57.678;11.910;2023-03-14T07:05:02;24.83;;;3.78;;
49962;SDS011;36180;57.678;11.910;2023-03-14T07:07:29;29.35;;;4.03;;
49962;SDS011;36180;57.678;11.910;2023-03-14T07:09:56;24.45;;;3.67;;
49962;SDS011;36180;57.678;11.910;2023-03-14T07:12:25;28.27;;;3.63;;
49962;SDS011;36180;57.678;11.910;2023-03-14T07:14:52;23.70;;;3.15;;
49962;SDS011;36180;57.678;11.910;2023-03-14T07:17:20;26.55;;;3.35;;
49962;SDS011;36180;57.678;11.910;2023-03-14T07:19:47;16.70;;;2.13;;
49962;SDS011;36180;57.678;11.910;2023-03-14T07:22:17;26.70;;;3.40;;
49962;SDS011;36180;57.678;11.910;2023-03-14T07:24:46;16.98;;;2.42;;
49962;SDS011;36180;57.678;11.910;2023-03-14T07:27:13;19.90;;;3.10;;
49962;SDS011;36180;57.678;11.910;2023-03-14T07:29:40;23.02;;;2.63;;
49962;SDS011;36180;57.678;11.910;2023-03-14T07:32:07;25.92;;;3.67;;
49962;SDS011;36180;57.678;11.910;2023-03-14T07:34:35;19.70;;;2.65;;
49962;SDS011;36180;57.678;11.910;2023-03-14T07:37:02;24.50;;;3.13;;
49962;SDS011;36180;57.678;11.910;2023-03-14T07:39:32;24.10;;;2.92;;
49962;SDS011;36180;57.678;11.910;2023-03-14T07:42:04;21.73;;;3.00;;
49962;SDS011;36180;57.678;11.910;2023-03-14T07:44:46;25.48;;;2.63;;
49962;SDS011;36180;57.678;11.910;2023-03-14T07:47:13;25.55;;;3.50;;
49962;SDS011;36180;57.678;11.910;2023-03-14T07:49:40;25.15;;;3.08;;
49962;SDS011;36180;57.678;11.910;2023-03-14T07:52:07;18.92;;;2.35;;
49962;SDS011;36180;57.678;11.910;2023-03-14T07:54:35;25.52;;;2.92;;
49962;SDS011;36180;57.678;11.910;2023-03-14T07:57:03;23.50;;;3.22;;
49962;SDS011;36180;57.678;11.910;2023-03-14T07:59:30;23.80;;;2.97;;
49962;SDS011;36180;57.678;11.910;2023-03-14T08:01:57;20.23;;;3.03;;
49962;SDS011;36180;57.678;11.910;2023-03-14T08:04:24;22.92;;;2.63;;
49962;SDS011;36180;57.678;11.910;2023-03-14T08:06:52;21.83;;;3.08;;
49962;SDS011;36180;57.678;11.910;2023-03-14T08:09:19;28.77;;;3.60;;
49962;SDS011;36180;57.678;11.910;2023-03-14T08:11:48;31.33;;;3.10;;
49962;SDS011;36180;57.678;11.910;2023-03-14T08:14:15;25.98;;;2.63;;
49962;SDS011;36180;57.678;11.910;2023-03-14T08:16:42;22.23;;;2.92;;
49962;SDS011;36180;57.678;11.910;2023-03-14T08:19:09;25.30;;;3.63;;
49962;SDS011;36180;57.678;11.910;2023-03-14T08:21:36;22.90;;;2.30;;
49962;SDS011;36180;57.678;11.910;2023-03-14T08:24:03;26.65;;;3.03;;
49962;SDS011;36180;57.678;11.910;2023-03-14T08:26:31;16.27;;;2.20;;
49962;SDS011;36180;57.678;11.910;2023-03-14T08:28:59;17.50;;;2.38;;
49962;SDS011;36180;57.678;11.910;2023-03-14T08:31:28;23.95;;;3.00;;
49962;SDS011;36180;57.678;11.910;2023-03-14T08:33:55;20.17;;;2.60;;
49962;SDS011;36180;57.678;11.910;2023-03-14T08:36:24;14.18;;;2.58;;
49962;SDS011;36180;57.678;11.910;2023-03-14T08:38:51;16.75;;;2.15;;
49962;SDS011;36180;57.678;11.910;2023-03-14T08:41:19;20.30;;;3.08;;
49962;SDS011;36180;57.678;11.910;2023-03-14T08:43:46;17.00;;;1.88;;
49962;SDS011;36180;57.678;11.910;2023-03-14T08:46:15;14.75;;;1.90;;
49962;SDS011;36180;57.678;11.910;2023-03-14T08:48:42;18.98;;;2.03;;
49962;SDS011;36180;57.678;11.910;2023-03-14T08:51:10;14.43;;;2.60;;
49962;SDS011;36180;57.678;11.910;2023-03-14T08:53:39;15.32;;;2.38;;
49962;SDS011;36180;57.678;11.910;2023-03-14T08:56:06;19.75;;;2.05;;
49962;SDS011;36180;57.678;11.910;2023-03-14T08:58:35;15.65;;;2.25;;
49962;SDS011;36180;57.678;11.910;2023-03-14T09:01:03;15.25;;;2.42;;
49962;SDS011;36180;57.678;11.910;2023-03-14T09:03:32;16.05;;;2.22;;
49962;SDS011;36180;57.678;11.910;2023-03-14T09:06:01;17.02;;;1.90;;
49962;SDS011;36180;57.678;11.910;2023-03-14T09:08:30;18.70;;;2.88;;
49962;SDS011;36180;57.678;11.910;2023-03-14T09:10:57;12.05;;;2.08;;
49962;SDS011;36180;57.678;11.910;2023-03-14T09:13:24;18.30;;;2.28;;
49962;SDS011;36180;57.678;11.910;2023-03-14T09:15:51;12.85;;;2.40;;
49962;SDS011;36180;57.678;11.910;2023-03-14T09:18:18;9.23;;;1.67;;
49962;SDS011;36180;57.678;11.910;2023-03-14T09:20:47;14.30;;;2.08;;
49962;SDS011;36180;57.678;11.910;2023-03-14T09:23:14;16.08;;;2.33;;
49962;SDS011;36180;57.678;11.910;2023-03-14T09:25:41;15.10;;;2.00;;
49962;SDS011;36180;57.678;11.910;2023-03-14T09:28:08;14.52;;;1.88;;
49962;SDS011;36180;57.678;11.910;2023-03-14T09:30:35;12.13;;;1.35;;
49962;SDS011;36180;57.678;11.910;2023-03-14T09:33:02;9.77;;;2.13;;
49962;SDS011;36180;57.678;11.910;2023-03-14T09:35:29;17.45;;;2.50;;
49962;SDS011;36180;57.678;11.910;2023-03-14T09:37:58;9.23;;;1.27;;
49962;SDS011;36180;57.678;11.910;2023-03-14T09:40:25;16.55;;;1.63;;
49962;SDS011;36180;57.678;11.910;2023-03-14T09:42:59;11.32;;;1.85;;
49962;SDS011;36180;57.678;11.910;2023-03-14T09:45:28;13.85;;;2.03;;
49962;SDS011;36180;57.678;11.910;2023-03-14T09:47:57;8.82;;;1.50;;
49962;SDS011;36180;57.678;11.910;2023-03-14T09:50:25;14.32;;;1.77;;
49962;SDS011;36180;57.678;11.910;2023-03-14T09:52:55;9.43;;;1.45;;
49962;SDS011;36180;57.678;11.910;2023-03-14T09:55:25;13.43;;;1.67;;
49962;SDS011;36180;57.678;11.910;2023-03-14T09:57:54;12.80;;;1.85;;
49962;SDS011;36180;57.678;11.910;2023-03-14T10:00:26;12.38;;;2.72;;
49962;SDS011;36180;57.678;11.910;2023-03-14T10:02:56;10.82;;;1.75;;
49962;SDS011;36180;57.678;11.910;2023-03-14T10:05:27;12.15;;;2.00;;
49962;SDS011;36180;57.678;11.910;2023-03-14T10:07:54;17.80;;;2.30;;
49962;SDS011;36180;57.678;11.910;2023-03-14T10:10:24;10.57;;;1.83;;
49962;SDS011;36180;57.678;11.910;2023-03-14T10:12:54;15.55;;;2.00;;
49962;SDS011;36180;57.678;11.910;2023-03-14T10:15:24;9.90;;;1.88;;
49962;SDS011;36180;57.678;11.910;2023-03-14T10:17:52;13.10;;;1.77;;
49962;SDS011;36180;57.678;11.910;2023-03-14T10:20:26;13.10;;;1.92;;
49962;SDS011;36180;57.678;11.910;2023-03-14T10:22:58;10.30;;;1.42;;
49962;SDS011;36180;57.678;11.910;2023-03-14T10:25:28;9.48;;;1.42;;
49962;SDS011;36180;57.678;11.910;2023-03-14T10:27:55;6.03;;;1.20;;
49962;SDS011;36180;57.678;11.910;2023-03-14T10:30:27;9.43;;;1.50;;
49962;SDS011;36180;57.678;11.910;2023-03-14T10:33:09;6.47;;;1.45;;
49962;SDS011;36180;57.678;11.910;2023-03-14T10:35:37;7.82;;;1.27;;
49962;SDS011;36180;57.678;11.910;2023-03-14T10:38:04;8.70;;;1.10;;
49962;SDS011;36180;57.678;11.910;2023-03-14T10:40:33;12.73;;;1.63;;
49962;SDS011;36180;57.678;11.910;2023-03-14T10:43:05;10.07;;;1.20;;
49962;SDS011;36180;57.678;11.910;2023-03-14T10:45:35;10.25;;;1.20;;
49962;SDS011;36180;57.678;11.910;2023-03-14T10:48:07;18.55;;;1.88;;
49962;SDS011;36180;57.678;11.910;2023-03-14T10:53:16;14.35;;;1.88;;
49962;SDS011;36180;57.678;11.910;2023-03-14T10:55:46;13.75;;;1.83;;
49962;SDS011;36180;57.678;11.910;2023-03-14T10:58:18;13.02;;;1.52;;
49962;SDS011;36180;57.678;11.910;2023-03-14T11:03:13;9.20;;;1.30;;
49962;SDS011;36180;57.678;11.910;2023-03-14T11:05:42;10.57;;;1.45;;
49962;SDS011;36180;57.678;11.910;2023-03-14T11:08:13;8.38;;;1.25;;
49962;SDS011;36180;57.678;11.910;2023-03-14T11:10:48;7.45;;;1.17;;
49962;SDS011;36180;57.678;11.910;2023-03-14T11:13:17;7.00;;;1.35;;
49962;SDS011;36180;57.678;11.910;2023-03-14T11:15:50;7.05;;;1.45;;
49962;SDS011;36180;57.678;11.910;2023-03-14T11:18:31;10.82;;;1.42;;
49962;SDS011;36180;57.678;11.910;2023-03-14T11:21:16;10.48;;;1.45;;
49962;SDS011;36180;57.678;11.910;2023-03-14T11:23:49;11.10;;;1.60;;
49962;SDS011;36180;57.678;11.910;2023-03-14T11:26:27;7.43;;;1.45;;
49962;SDS011;36180;57.678;11.910;2023-03-14T11:28:58;8.93;;;1.10;;
49962;SDS011;36180;57.678;11.910;2023-03-14T11:31:41;7.28;;;1.20;;
49962;SDS011;36180;57.678;11.910;2023-03-14T11:34:14;10.60;;;1.10;;
49962;SDS011;36180;57.678;11.910;2023-03-14T11:36:44;11.75;;;1.15;;
49962;SDS011;36180;57.678;11.910;2023-03-14T11:39:15;6.85;;;1.25;;
49962;SDS011;36180;57.678;11.910;2023-03-14T11:41:45;8.70;;;1.40;;
49962;SDS011;36180;57.678;11.910;2023-03-14T11:44:15;9.15;;;1.13;;
49962;SDS011;36180;57.678;11.910;2023-03-14T11:46:46;5.22;;;1.10;;
49962;SDS011;36180;57.678;11.910;2023-03-14T11:49:17;7.03;;;1.17;;
49962;SDS011;36180;57.678;11.910;2023-03-14T11:51:51;5.55;;;1.10;;
49962;SDS011;36180;57.678;11.910;2023-03-14T11:54:24;5.85;;;0.95;;
49962;SDS011;36180;57.678;11.910;2023-03-14T11:56:59;7.13;;;1.08;;
49962;SDS011;36180;57.678;11.910;2023-03-14T11:59:29;5.80;;;1.02;;
49962;SDS011;36180;57.678;11.910;2023-03-14T12:02:00;6.22;;;0.98;;
49962;SDS011;36180;57.678;11.910;2023-03-14T12:04:40;5.38;;;1.00;;
49962;SDS011;36180;57.678;11.910;2023-03-14T12:07:15;3.10;;;1.00;;
49962;SDS011;36180;57.678;11.910;2023-03-14T12:09:45;4.95;;;0.63;;
49962;SDS011;36180;57.678;11.910;2023-03-14T12:12:16;4.75;;;1.40;;
49962;SDS011;36180;57.678;11.910;2023-03-14T12:14:46;8.82;;;0.90;;
49962;SDS011;36180;57.678;11.910;2023-03-14T12:17:19;8.88;;;1.08;;
49962;SDS011;36180;57.678;11.910;2023-03-14T12:19:48;4.25;;;1.00;;
49962;SDS011;36180;57.678;11.910;2023-03-14T12:22:27;4.35;;;0.80;;
49962;SDS011;36180;57.678;11.910;2023-03-14T12:24:59;8.13;;;1.33;;
49962;SDS011;36180;57.678;11.910;2023-03-14T12:27:43;6.40;;;0.95;;
49962;SDS011;36180;57.678;11.910;2023-03-14T12:30:25;5.80;;;0.93;;
49962;SDS011;36180;57.678;11.910;2023-03-14T12:35:48;7.30;;;1.00;;
49962;SDS011;36180;57.678;11.910;2023-03-14T12:38:18;11.35;;;1.23;;
49962;SDS011;36180;57.678;11.910;2023-03-14T12:40:49;4.63;;;1.10;;
49962;SDS011;36180;57.678;11.910;2023-03-14T12:43:25;4.53;;;1.17;;
49962;SDS011;36180;57.678;11.910;2023-03-14T12:46:06;4.65;;;1.00;;
49962;SDS011;36180;57.678;11.910;2023-03-14T12:48:36;4.57;;;1.10;;
49962;SDS011;36180;57.678;11.910;2023-03-14T12:51:05;5.43;;;0.80;;
49962;SDS011;36180;57.678;11.910;2023-03-14T12:56:42;2.85;;;0.70;;
49962;SDS011;36180;57.678;11.910;2023-03-14T12:59:25;8.95;;;0.88;;
49962;SDS011;36180;57.678;11.910;2023-03-14T13:01:58;3.28;;;0.85;;
49962;SDS011;36180;57.678;11.910;2023-03-14T13:04:31;3.75;;;0.70;;
49962;SDS011;36180;57.678;11.910;2023-03-14T13:06:59;4.93;;;0.90;;
49962;SDS011;36180;57.678;11.910;2023-03-14T13:12:44;5.55;;;0.90;;
49962;SDS011;36180;57.678;11.910;2023-03-14T13:15:18;7.78;;;1.20;;
49962;SDS011;36180;57.678;11.910;2023-03-14T13:17:48;5.28;;;1.13;;
49962;SDS011;36180;57.678;11.910;2023-03-14T13:20:16;6.18;;;0.80;;
49962;SDS011;36180;57.678;11.910;2023-03-14T13:22:47;3.67;;;1.02;;
49962;SDS011;36180;57.678;11.910;2023-03-14T13:25:15;3.08;;;0.90;;
49962;SDS011;36180;57.678;11.910;2023-03-14T13:27:43;3.70;;;0.70;;
49962;SDS011;36180;57.678;11.910;2023-03-14T13:30:19;3.50;;;0.82;;
49962;SDS011;36180;57.678;11.910;2023-03-14T13:32:49;6.10;;;2.00;;
49962;SDS011;36180;57.678;11.910;2023-03-14T13:35:18;3.22;;;0.63;;
49962;SDS011;36180;57.678;11.910;2023-03-14T13:37:46;1.45;;;0.60;;
49962;SDS011;36180;57.678;11.910;2023-03-14T13:40:21;1.25;;;0.70;;
49962;SDS011;36180;57.678;11.910;2023-03-14T13:43:02;4.20;;;0.95;;
49962;SDS011;36180;57.678;11.910;2023-03-14T13:45:32;2.40;;;0.65;;
49962;SDS011;36180;57.678;11.910;2023-03-14T13:48:11;1.08;;;0.55;;
49962;SDS011;36180;57.678;11.910;2023-03-14T13:50:43;3.72;;;1.27;;
49962;SDS011;36180;57.678;11.910;2023-03-14T13:53:11;2.60;;;0.57;;
49962;SDS011;36180;57.678;11.910;2023-03-14T13:55:38;1.88;;;0.55;;
49962;SDS011;36180;57.678;11.910;2023-03-14T13:58:10;2.05;;;0.50;;
49962;SDS011;36180;57.678;11.910;2023-03-14T14:03:40;1.67;;;0.52;;
49962;SDS011;36180;57.678;11.910;2023-03-14T14:06:09;2.40;;;0.68;;
49962;SDS011;36180;57.678;11.910;2023-03-14T14:08:43;2.05;;;0.63;;
49962;SDS011;36180;57.678;11.910;2023-03-14T14:11:13;3.92;;;0.68;;
49962;SDS011;36180;57.678;11.910;2023-03-14T14:13:47;2.78;;;0.70;;
49962;SDS011;36180;57.678;11.910;2023-03-14T14:16:17;2.85;;;0.70;;
49962;SDS011;36180;57.678;11.910;2023-03-14T14:18:46;3.83;;;1.10;;
49962;SDS011;36180;57.678;11.910;2023-03-14T14:21:13;3.05;;;0.73;;
49962;SDS011;36180;57.678;11.910;2023-03-14T14:23:40;3.78;;;0.80;;
49962;SDS011;36180;57.678;11.910;2023-03-14T14:26:07;3.58;;;0.80;;
49962;SDS011;36180;57.678;11.910;2023-03-14T14:28:35;1.70;;;0.70;;
49962;SDS011;36180;57.678;11.910;2023-03-14T14:31:04;1.75;;;0.63;;
49962;SDS011;36180;57.678;11.910;2023-03-14T14:33:44;2.47;;;0.80;;
49962;SDS011;36180;57.678;11.910;2023-03-14T14:36:14;1.75;;;0.57;;
49962;SDS011;36180;57.678;11.910;2023-03-14T14:38:48;7.53;;;0.98;;
49962;SDS011;36180;57.678;11.910;2023-03-14T14:41:16;4.50;;;0.93;;
49962;SDS011;36180;57.678;11.910;2023-03-14T14:43:43;1.27;;;0.80;;
49962;SDS011;36180;57.678;11.910;2023-03-14T14:46:13;1.65;;;0.75;;
49962;SDS011;36180;57.678;11.910;2023-03-14T14:48:45;3.28;;;0.60;;
49962;SDS011;36180;57.678;11.910;2023-03-14T14:51:26;1.45;;;0.60;;
49962;SDS011;36180;57.678;11.910;2023-03-14T14:54:02;2.83;;;0.98;;
49962;SDS011;36180;57.678;11.910;2023-03-14T14:56:34;1.95;;;0.60;;
49962;SDS011;36180;57.678;11.910;2023-03-14T14:59:03;1.47;;;0.60;;
49962;SDS011;36180;57.678;11.910;2023-03-14T15:01:33;4.00;;;0.95;;
49962;SDS011;36180;57.678;11.910;2023-03-14T15:04:03;1.90;;;0.70;;
49962;SDS011;36180;57.678;11.910;2023-03-14T15:06:31;3.47;;;0.70;;